Time;durP1;ratioP1;P1;durP2;ratioP2;P2;SDS_P1;SDS_P2;PMS_P1;PMS_P2;Temp;Humidity;BMP_temperature;BMP_pressure;BME280_temperature;BME280_humidity;BME280_pressure;Samples;Min_cycle;Max_cycle;Signal;HPM_P1;HPM_P2
2022/01/10 00:00:16;;;;;;;11.47;10.77;;;;;;;5.57;86.73;91265.66;5011827;28;20654;-77
2022/01/10 00:02:44;;;;;;;11.30;10.60;;;;;;;5.46;86.46;91256.50;5010727;28;20192;-77
2022/01/10 00:05:10;;;;;;;11.90;11.13;;;;;;;5.40;87.35;91257.63;5010266;28;20259;-77
2022/01/10 00:07:36;;;;;;;11.97;11.27;;;;;;;5.31;87.89;91265.22;5024766;28;20230;-78
2022/01/10 00:10:03;;;;;;;12.30;11.50;;;;;;;5.55;87.09;91268.53;5009184;28;20187;-78
2022/01/10 00:12:29;;;;;;;11.73;11.03;;;;;;;5.35;87.58;91268.03;5010503;28;20250;-77
2022/01/10 00:14:54;;;;;;;11.57;10.87;;;;;;;5.43;87.37;91257.81;5011663;28;20211;-78
2022/01/10 00:17:20;;;;;;;12.10;11.40;;;;;;;5.44;87.16;91256.00;5009656;28;20293;-78
2022/01/10 00:19:45;;;;;;;11.53;10.93;;;;;;;5.56;87.13;91269.28;5011420;28;20258;-78
2022/01/10 00:22:11;;;;;;;12.63;11.53;;;;;;;5.27;87.90;91240.19;5010728;28;20231;-78
2022/01/10 00:24:38;;;;;;;11.90;11.13;;;;;;;5.57;87.10;91269.00;5011605;28;20196;-78
2022/01/10 00:27:03;;;;;;;12.67;11.90;;;;;;;5.41;87.41;91246.22;5009387;28;20225;-78
2022/01/10 00:29:29;;;;;;;10.70;10.10;;;;;;;5.73;86.28;91274.72;5009732;28;20223;-78
2022/01/10 00:31:57;;;;;;;11.50;10.90;;;;;;;5.65;86.39;91265.03;5010578;28;20224;-78
2022/01/10 00:34:23;;;;;;;11.57;10.97;;;;;;;5.62;86.62;91253.41;5009358;28;20278;-78
2022/01/10 00:36:49;;;;;;;10.87;10.37;;;;;;;5.61;86.50;91266.63;5009416;28;20258;-78
2022/01/10 00:39:14;;;;;;;11.43;10.93;;;;;;;5.57;87.09;91268.25;5008108;28;20227;-77
2022/01/10 00:41:40;;;;;;;10.83;10.23;;;;;;;5.43;87.23;91259.66;5009726;28;20280;-77
2022/01/10 00:44:06;;;;;;;12.60;11.77;;;;;;;5.50;87.47;91268.59;5010751;28;20184;-78
2022/01/10 00:46:31;;;;;;;11.13;10.33;;;;;;;5.42;87.57;91256.28;5010598;28;20709;-78
2022/01/10 00:48:57;;;;;;;11.27;10.47;;;;;;;5.27;88.16;91237.63;5010295;28;20215;-77
2022/01/10 00:51:23;;;;;;;10.50;10.00;;;;;;;5.48;87.41;91257.75;5010326;28;20239;-77
2022/01/10 00:53:50;;;;;;;11.63;10.93;;;;;;;5.49;86.92;91253.34;5009494;28;20215;-77
2022/01/10 00:56:16;;;;;;;11.33;10.73;;;;;;;5.44;87.76;91250.81;5009108;28;20235;-77
2022/01/10 00:58:42;;;;;;;10.73;10.23;;;;;;;5.62;86.62;91260.41;5010942;28;20226;-77
2022/01/10 01:01:08;;;;;;;11.20;10.70;;;;;;;5.64;86.41;91253.91;5009519;28;21032;-77
2022/01/10 01:03:33;;;;;;;10.77;10.27;;;;;;;5.41;86.45;91233.28;5010446;28;20175;-77
2022/01/10 01:05:59;;;;;;;11.30;10.60;;;;;;;5.47;87.31;91250.28;5024943;28;20283;-77
2022/01/10 01:08:28;;;;;;;11.67;11.07;;;;;;;5.47;87.50;91251.03;5009850;28;21287;-77
2022/01/10 01:13:30;;;;;;;11.63;11.00;;;;;;;5.54;86.20;91214.47;5007282;28;20202;-77
2022/01/10 01:24:07;;;;;;;11.93;11.23;;;;;;;5.47;87.76;91237.31;5010253;28;20210;-77
2022/01/10 01:26:38;;;;;;;11.50;10.87;;;;;;;5.21;88.94;91230.97;5009568;28;20252;-76
2022/01/10 01:29:05;;;;;;;10.33;9.80;;;;;;;5.29;88.87;91230.34;5007803;28;20187;-78
2022/01/10 01:31:31;;;;;;;10.87;10.37;;;;;;;5.21;89.74;91243.91;5010034;28;20267;-77
2022/01/10 01:33:57;;;;;;;11.10;10.50;;;;;;;5.17;90.65;91235.94;5009096;28;20218;-77
2022/01/10 01:36:25;;;;;;;10.63;10.03;;;;;;;5.09;90.81;91217.69;5009245;28;20224;-78
2022/01/10 01:38:52;;;;;;;11.80;11.10;;;;;;;5.07;91.21;91230.13;5010325;28;20237;-77
2022/01/10 01:41:35;;;;;;;11.73;10.97;;;;;;;5.16;91.09;91223.28;5009716;28;20239;-77
2022/01/10 01:44:02;;;;;;;11.73;11.03;;;;;;;5.04;91.38;91215.16;5004360;28;20211;-78
2022/01/10 01:46:29;;;;;;;12.13;11.33;;;;;;;5.03;92.08;91214.38;5009759;28;20254;-77
2022/01/10 01:48:55;;;;;;;11.80;11.10;;;;;;;5.05;92.36;91221.88;5007796;28;20188;-76
2022/01/10 01:51:21;;;;;;;11.13;10.43;;;;;;;4.96;92.82;91219.91;5008683;28;20295;-77
2022/01/10 01:53:48;;;;;;;11.53;10.90;;;;;;;4.89;93.14;91209.16;5010291;28;20218;-77
2022/01/10 01:56:15;;;;;;;12.17;11.57;;;;;;;5.02;93.33;91217.25;5008337;28;20254;-76
2022/01/10 01:58:42;;;;;;;10.63;10.13;;;;;;;5.03;93.00;91213.66;5009577;28;20190;-77
2022/01/10 02:01:09;;;;;;;12.50;11.70;;;;;;;4.83;93.60;91220.59;5009717;28;20231;-78
2022/01/10 02:03:38;;;;;;;12.43;11.73;;;;;;;4.83;93.78;91212.84;5008393;28;20171;-78
2022/01/10 02:06:08;;;;;;;12.60;11.90;;;;;;;4.93;93.64;91222.28;5008888;28;20224;-77
2022/01/10 02:08:35;;;;;;;11.77;11.17;;;;;;;4.97;94.07;91225.84;5007427;28;20195;-77
2022/01/10 02:11:02;;;;;;;11.23;10.63;;;;;;;5.06;93.30;91213.09;5008865;28;20230;-77
2022/01/10 02:13:27;;;;;;;11.93;11.23;;;;;;;5.01;93.45;91216.50;5010331;28;20248;-77
2022/01/10 02:16:05;;;;;;;11.20;10.60;;;;;;;4.89;93.76;91224.66;5007856;28;20231;-77
2022/01/10 02:18:31;;;;;;;11.67;11.03;;;;;;;4.95;94.13;91226.13;5008600;28;20191;-78
2022/01/10 02:21:00;;;;;;;11.27;10.63;;;;;;;4.93;94.48;91215.28;5009140;28;20262;-78
2022/01/10 02:23:26;;;;;;;11.33;10.73;;;;;;;4.98;93.98;91211.88;5007289;28;20542;-78
2022/01/10 02:25:51;;;;;;;11.50;10.73;;;;;;;5.00;94.06;91209.78;5008433;28;20290;-78
2022/01/10 02:28:17;;;;;;;11.53;10.93;;;;;;;4.93;94.15;91212.69;5024340;28;20195;-76
2022/01/10 02:30:42;;;;;;;11.57;10.77;;;;;;;4.86;94.75;91220.03;5005717;28;20226;-77
2022/01/10 02:33:08;;;;;;;12.43;11.73;;;;;;;4.92;95.28;91212.97;5009865;28;20199;-76
2022/01/10 02:35:42;;;;;;;12.00;11.20;;;;;;;5.08;94.10;91219.50;5007732;28;20261;-77
2022/01/10 02:38:08;;;;;;;13.17;12.27;;;;;;;4.94;94.07;91206.50;5008382;28;20193;-77
2022/01/10 02:40:34;;;;;;;12.43;11.60;;;;;;;4.98;94.42;91217.03;5024094;28;20223;-77
2022/01/10 02:43:00;;;;;;;12.60;11.87;;;;;;;4.94;94.61;91219.44;5009189;28;20202;-77
2022/01/10 02:45:26;;;;;;;11.30;10.60;;;;;;;4.93;94.93;91235.97;5007943;28;20230;-77
2022/01/10 02:47:53;;;;;;;12.17;11.37;;;;;;;4.96;94.33;91230.25;5008590;28;20196;-76
2022/01/10 02:50:20;;;;;;;12.30;11.50;;;;;;;4.89;94.65;91227.25;5004884;28;20218;-77
2022/01/10 02:52:47;;;;;;;11.73;11.03;;;;;;;4.91;94.51;91222.56;5007022;28;20195;-77
2022/01/10 02:55:13;;;;;;;12.50;11.70;;;;;;;4.99;94.29;91223.75;5008147;28;20218;-76
2022/01/10 02:57:39;;;;;;;12.73;11.93;;;;;;;4.92;94.98;91229.28;5004921;28;20222;-76
2022/01/10 03:00:09;;;;;;;13.97;12.63;;;;;;;4.99;95.48;91223.75;5006828;28;20184;-77
2022/01/10 03:02:36;;;;;;;13.60;12.50;;;;;;;4.75;95.94;91218.63;5006514;28;20282;-76
2022/01/10 03:05:04;;;;;;;13.57;12.63;;;;;;;4.77;95.92;91211.38;5011152;28;20499;-77
2022/01/10 03:07:30;;;;;;;13.83;12.93;;;;;;;4.65;97.04;91208.41;5012085;28;20212;-77
2022/01/10 03:09:56;;;;;;;13.07;12.30;;;;;;;4.89;96.21;91224.66;5012879;28;20194;-77
2022/01/10 03:12:22;;;;;;;11.47;10.87;;;;;;;5.00;95.67;91225.28;5026563;28;20207;-77
2022/01/10 03:14:48;;;;;;;10.70;10.00;;;;;;;4.98;94.85;91228.16;5011516;28;20215;-77
2022/01/10 03:17:13;;;;;;;11.30;10.70;;;;;;;5.06;93.95;91223.44;5012293;28;20215;-77
2022/01/10 03:19:40;;;;;;;10.43;10.03;;;;;;;5.36;91.98;91233.34;5027553;28;20187;-77
2022/01/10 03:22:08;;;;;;;9.97;9.57;;;;;;;5.30;91.80;91229.28;5026577;28;20226;-77
2022/01/10 03:24:33;;;;;;;9.30;9.00;;;;;;;5.24;91.28;91209.72;5011366;28;20192;-77
2022/01/10 03:26:59;;;;;;;10.23;9.83;;;;;;;5.25;92.16;91221.59;5011857;28;20262;-77
2022/01/10 03:29:24;;;;;;;10.20;9.70;;;;;;;5.22;92.24;91219.56;5011026;28;20202;-77
2022/01/10 03:31:51;;;;;;;10.17;9.77;;;;;;;5.48;91.33;91231.13;5011631;28;20223;-76
2022/01/10 03:34:17;;;;;;;10.40;10.00;;;;;;;5.36;90.51;91228.16;5012152;28;20219;-77
2022/01/10 03:36:44;;;;;;;9.73;9.33;;;;;;;5.32;90.51;91217.63;5010307;28;20230;-77
2022/01/10 03:39:11;;;;;;;10.33;9.93;;;;;;;5.53;89.64;91234.38;5011255;28;20234;-77
2022/01/10 03:41:37;;;;;;;9.90;9.50;;;;;;;5.70;88.45;91228.69;5010826;28;20235;-77
2022/01/10 03:44:04;;;;;;;9.67;9.23;;;;;;;5.49;88.89;91223.06;5011020;28;20184;-77
2022/01/10 03:46:32;;;;;;;11.60;10.80;;;;;;;5.46;89.87;91230.63;5011035;28;20239;-77
2022/01/10 03:48:58;;;;;;;10.87;10.37;;;;;;;5.48;89.19;91236.28;5009026;28;20180;-77
2022/01/10 03:51:23;;;;;;;11.27;10.67;;;;;;;5.54;89.12;91240.34;5011794;28;20231;-77
2022/01/10 03:53:48;;;;;;;12.40;11.70;;;;;;;5.54;90.13;91248.09;5010600;28;20283;-77
2022/01/10 03:56:14;;;;;;;10.77;10.23;;;;;;;5.44;89.99;91230.91;4993226;28;20215;-77
2022/01/10 03:58:39;;;;;;;10.70;10.10;;;;;;;5.43;90.54;91239.69;5011514;28;20195;-77
2022/01/10 04:01:08;;;;;;;11.03;10.53;;;;;;;5.31;91.17;91228.25;5009342;28;20223;-77
2022/01/10 04:03:33;;;;;;;11.30;10.73;;;;;;;5.46;91.21;91256.50;5010762;28;20182;-77
2022/01/10 04:05:59;;;;;;;10.83;10.10;;;;;;;5.47;90.72;91255.44;5010654;28;20230;-77
2022/01/10 04:08:25;;;;;;;11.10;10.40;;;;;;;5.48;91.54;91262.91;5011051;28;20216;-77
2022/01/10 04:10:51;;;;;;;11.60;10.90;;;;;;;5.26;91.54;91241.25;5010316;28;20231;-77
2022/01/10 04:13:17;;;;;;;11.17;10.50;;;;;;;5.41;92.17;91259.94;5010706;28;20222;-76
2022/01/10 04:15:42;;;;;;;10.90;10.10;;;;;;;5.23;92.33;91249.56;5010566;28;20283;-77
2022/01/10 04:18:08;;;;;;;10.90;10.30;;;;;;;5.25;92.43;91257.81;5010715;28;20203;-77
2022/01/10 04:20:34;;;;;;;13.27;12.37;;;;;;;5.32;93.32;91258.25;5010353;28;20235;-77
2022/01/10 04:22:59;;;;;;;14.37;13.27;;;;;;;5.26;94.14;91274.88;5010745;28;20215;-77
2022/01/10 04:25:25;;;;;;;15.00;13.70;;;;;;;5.13;94.54;91272.97;5009264;28;20231;-77
2022/01/10 04:27:50;;;;;;;16.07;14.57;;;;;;;4.98;95.08;91277.28;5010285;28;20218;-78
2022/01/10 04:30:16;;;;;;;18.33;16.63;;;;;;;4.97;95.88;91267.22;5010050;28;20203;-76
2022/01/10 04:32:43;;;;;;;17.53;16.07;;;;;;;4.94;96.00;91272.94;5009951;28;20184;-77
2022/01/10 04:35:10;;;;;;;15.87;14.47;;;;;;;5.01;96.13;91291.50;5006370;28;20219;-78
2022/01/10 04:37:35;;;;;;;17.50;15.87;;;;;;;5.00;96.44;91289.94;5008430;28;21241;-78
2022/01/10 04:40:01;;;;;;;18.00;16.13;;;;;;;4.83;96.57;91276.69;5007867;28;20219;-82
2022/01/10 04:42:26;;;;;;;18.47;16.70;;;;;;;4.78;97.16;91284.50;5006728;28;20227;-80
2022/01/10 04:44:52;;;;;;;15.80;14.53;;;;;;;4.85;97.67;91280.56;5008579;28;20202;-80
2022/01/10 04:47:17;;;;;;;17.50;16.03;;;;;;;4.81;98.05;91279.56;5005704;28;20227;-85
2022/01/10 04:50:14;;;;;;;15.50;14.00;;;;;;;4.90;96.94;91282.31;5008850;28;20183;-82
2022/01/10 04:52:39;;;;;;;15.43;14.20;;;;;;;4.98;96.47;91289.44;5007708;28;20206;-80
2022/01/10 04:55:06;;;;;;;14.30;13.27;;;;;;;4.88;96.71;91280.00;5009164;28;20211;-82
2022/01/10 04:57:31;;;;;;;16.33;14.90;;;;;;;4.96;96.16;91274.19;5005514;28;20223;-81
2022/01/10 04:59:57;;;;;;;14.53;13.43;;;;;;;5.24;96.02;91302.84;5007660;28;20192;-85
2022/01/10 05:02:22;;;;;;;14.53;13.43;;;;;;;5.27;95.63;91304.88;5007166;28;21122;-82
2022/01/10 05:04:48;;;;;;;13.27;12.37;;;;;;;5.11;95.75;91293.16;5006690;28;20870;-79
2022/01/10 05:07:13;;;;;;;13.13;12.37;;;;;;;5.22;95.27;91292.00;5007472;28;20296;-78
2022/01/10 05:09:39;;;;;;;12.13;11.30;;;;;;;5.32;94.73;91297.84;5005643;28;20191;-79
2022/01/10 05:12:05;;;;;;;12.50;11.70;;;;;;;5.43;94.58;91301.81;5007209;28;20207;-78
2022/01/10 05:14:32;;;;;;;12.27;11.30;;;;;;;5.35;94.33;91299.88;5009522;28;20203;-86
2022/01/10 05:16:58;;;;;;;12.07;11.30;;;;;;;5.30;94.74;91294.75;5007123;28;20234;-79
2022/01/10 05:19:23;;;;;;;12.97;11.90;;;;;;;5.22;95.12;91294.59;5007821;28;20195;-86
2022/01/10 05:21:49;;;;;;;12.13;11.33;;;;;;;5.19;95.42;91285.56;5008360;28;20251;-94
2022/01/10 05:24:14;;;;;;;12.13;11.23;;;;;;;5.32;94.91;91300.41;5007699;28;20211;-83
2022/01/10 05:26:39;;;;;;;13.00;12.00;;;;;;;5.35;94.68;91319.78;5008696;28;20282;-89
2022/01/10 05:29:05;;;;;;;12.83;11.83;;;;;;;5.50;94.27;91322.16;5008772;28;20207;-88
2022/01/10 05:31:34;;;;;;;12.80;11.80;;;;;;;5.42;94.17;91320.19;5007648;28;20261;-84
2022/01/10 05:34:01;;;;;;;12.30;11.60;;;;;;;5.41;93.42;91316.06;5008430;28;20222;-85
2022/01/10 05:36:26;;;;;;;12.13;10.97;;;;;;;5.26;94.10;91326.63;5008741;28;20231;-90
2022/01/10 05:38:51;;;;;;;13.90;12.90;;;;;;;5.04;95.23;91300.50;5008131;28;20211;-87
2022/01/10 05:41:17;;;;;;;14.97;13.67;;;;;;;5.26;95.58;91327.38;5008168;28;20238;-93
2022/01/10 05:43:43;;;;;;;15.77;14.40;;;;;;;5.06;94.96;91317.28;5009496;28;20301;-95
2022/01/10 05:46:12;;;;;;;16.43;14.90;;;;;;;5.29;96.01;91333.84;5010328;28;20223;-95
2022/01/10 05:48:39;;;;;;;15.63;14.43;;;;;;;5.20;95.41;91322.56;5008581;28;20183;-94
2022/01/10 05:51:05;;;;;;;14.27;12.97;;;;;;;5.10;96.13;91333.78;5008277;28;20234;-93
2022/01/10 05:53:31;;;;;;;13.83;12.73;;;;;;;5.13;95.61;91312.56;5006551;28;20278;-95
2022/01/10 05:55:57;;;;;;;13.73;12.60;;;;;;;5.16;95.01;91337.06;5009583;28;20220;-94
2022/01/10 05:58:22;;;;;;;19.37;17.43;;;;;;;5.16;94.51;91326.72;5009252;28;20218;-95
2022/01/10 06:00:48;;;;;;;17.80;15.93;;;;;;;4.86;96.23;91333.00;5009074;28;20602;-88
2022/01/10 06:03:13;;;;;;;16.40;15.13;;;;;;;4.84;97.14;91346.22;5011550;28;20186;-95
2022/01/10 06:05:39;;;;;;;17.30;15.83;;;;;;;4.75;98.13;91354.84;5007906;28;20219;-94
2022/01/10 06:08:07;;;;;;;16.63;15.07;;;;;;;4.67;98.53;91339.94;5009749;28;20685;-94
2022/01/10 06:10:33;;;;;;;16.80;15.40;;;;;;;4.96;97.24;91333.66;5010919;28;20231;-93
2022/01/10 06:12:59;;;;;;;16.30;14.87;;;;;;;5.00;96.84;91338.31;5026207;28;20218;-96
2022/01/10 06:15:24;;;;;;;14.83;13.50;;;;;;;4.86;97.26;91348.53;5012042;28;20214;-96
2022/01/10 06:17:50;;;;;;;15.40;14.20;;;;;;;4.75;97.57;91342.69;5026581;28;20210;-96
2022/01/10 06:20:16;;;;;;;14.80;13.50;;;;;;;4.70;97.72;91347.91;5012735;28;20222;-87
2022/01/10 06:22:42;;;;;;;17.07;15.37;;;;;;;4.84;97.71;91348.81;5026872;28;20191;-95
2022/01/10 06:25:11;;;;;;;17.10;15.73;;;;;;;5.02;96.25;91362.06;5011623;28;20242;-95
2022/01/10 06:27:36;;;;;;;17.77;16.10;;;;;;;5.09;94.89;91347.00;5010024;28;20236;-93
2022/01/10 06:30:04;;;;;;;19.47;17.37;;;;;;;5.06;94.53;91347.56;5012817;28;20222;-96
2022/01/10 06:32:30;;;;;;;18.07;16.40;;;;;;;4.77;94.72;91348.38;5011244;28;20275;-96
2022/01/10 06:34:57;;;;;;;20.43;18.43;;;;;;;4.72;95.94;91350.22;5013237;28;20219;-90
2022/01/10 06:37:22;;;;;;;17.50;15.80;;;;;;;4.75;96.08;91347.09;5014072;28;20239;-96
2022/01/10 06:39:48;;;;;;;17.00;15.37;;;;;;;4.70;97.34;91366.00;5017736;28;20238;-95
2022/01/10 06:42:13;;;;;;;16.37;14.77;;;;;;;4.77;97.44;91363.09;5017274;28;20286;-96
2022/01/10 06:44:39;;;;;;;18.93;17.03;;;;;;;4.91;96.16;91371.75;5017066;28;20191;-88
2022/01/10 06:47:04;;;;;;;23.13;19.80;;;;;;;4.82;95.44;91358.63;5015425;28;20282;-92
2022/01/10 06:49:30;;;;;;;22.13;19.77;;;;;;;4.76;95.92;91380.41;5014323;28;20257;-95
2022/01/10 06:51:56;;;;;;;25.27;20.73;;;;;;;4.72;96.39;91376.84;5014745;28;20227;-96
2022/01/10 06:54:21;;;;;;;21.57;16.97;;;;;;;4.66;96.87;91379.75;5015927;28;20211;-92
2022/01/10 06:56:47;;;;;;;32.87;18.57;;;;;;;4.62;97.57;91379.50;5012957;28;20290;-92
2022/01/10 06:59:12;;;;;;;24.53;19.63;;;;;;;4.65;97.73;91384.13;5016599;28;20180;-91
2022/01/10 07:01:38;;;;;;;20.00;18.10;;;;;;;4.64;98.12;91376.66;5016342;28;20807;-96
2022/01/10 07:04:04;;;;;;;19.40;17.37;;;;;;;4.92;96.82;91384.41;5014556;28;20198;-87
2022/01/10 07:06:29;;;;;;;18.93;17.07;;;;;;;4.70;97.45;91378.94;5014919;28;20215;-91
2022/01/10 07:08:55;;;;;;;22.47;18.90;;;;;;;4.82;97.51;91391.50;5011187;28;20203;-84
2022/01/10 07:11:20;;;;;;;18.97;17.17;;;;;;;4.88;97.26;91380.84;5012442;28;20254;-84
2022/01/10 07:13:46;;;;;;;16.60;15.20;;;;;;;4.98;97.11;91391.06;5011636;28;20219;-86
2022/01/10 07:16:12;;;;;;;19.73;17.60;;;;;;;4.91;97.66;91395.81;5011052;28;20222;-85
2022/01/10 07:18:38;;;;;;;23.53;19.60;;;;;;;4.11;97.39;91277.69;5011048;28;20203;-84
2022/01/10 07:21:03;;;;;;;25.73;20.87;;;;;;;4.76;97.28;91379.66;5011818;28;20223;-84
2022/01/10 07:23:29;;;;;;;24.10;21.70;;;;;;;4.89;96.49;91390.13;5012629;28;20179;-81
2022/01/10 07:25:55;;;;;;;25.73;21.37;;;;;;;4.70;97.06;91386.69;5012714;28;20238;-78
2022/01/10 07:28:20;;;;;;;36.73;22.50;;;;;;;4.65;98.43;91409.97;5012556;28;20203;-83
2022/01/10 07:30:46;;;;;;;27.47;20.10;;;;;;;4.64;98.41;91412.84;5010086;28;20239;-84
2022/01/10 07:33:12;;;;;;;65.67;21.30;;;;;;;4.73;98.12;91411.97;5011687;28;20263;-83
2022/01/10 07:35:37;;;;;;;32.50;19.57;;;;;;;4.34;98.67;91395.75;5011125;28;20223;-91
2022/01/10 07:38:03;;;;;;;55.70;21.37;;;;;;;4.50;100.00;91411.91;5011898;28;20188;-87
2022/01/10 07:40:28;;;;;;;35.30;20.80;;;;;;;4.55;100.00;91417.84;5010325;28;20195;-92
2022/01/10 07:42:53;;;;;;;20.80;18.60;;;;;;;4.58;99.71;91419.88;5011234;28;20196;-90
2022/01/10 07:45:19;;;;;;;25.17;20.53;;;;;;;4.58;99.57;91404.38;5010907;28;20188;-89
2022/01/10 07:47:44;;;;;;;27.70;23.27;;;;;;;4.66;99.53;91427.03;5011373;28;20195;-89
2022/01/10 07:50:10;;;;;;;25.07;19.20;;;;;;;4.30;99.61;91355.25;5010398;28;20184;-90
2022/01/10 07:52:36;;;;;;;25.57;21.17;;;;;;;4.71;98.82;91398.59;5011601;28;20281;-91
2022/01/10 07:55:03;;;;;;;27.03;18.87;;;;;;;4.76;99.11;91397.75;5013117;28;20215;-90
2022/01/10 07:57:29;;;;;;;21.13;17.53;;;;;;;4.86;98.55;91390.66;5010533;28;20258;-92
2022/01/10 07:59:54;;;;;;;21.07;18.07;;;;;;;5.06;98.52;91407.03;5010394;28;20191;-89
2022/01/10 08:02:21;;;;;;;15.47;14.07;;;;;;;5.10;98.43;91380.34;5011383;28;20231;-91
2022/01/10 08:04:48;;;;;;;15.57;14.10;;;;;;;5.32;97.73;91398.75;5011738;28;20187;-90
2022/01/10 08:07:13;;;;;;;12.43;11.43;;;;;;;5.51;96.66;91419.47;5010470;28;20291;-90
2022/01/10 08:09:39;;;;;;;13.63;12.73;;;;;;;5.44;96.81;91396.53;5011281;28;20199;-91
2022/01/10 08:12:05;;;;;;;18.00;16.27;;;;;;;5.33;95.40;91392.50;5009274;28;20223;-92
2022/01/10 08:14:32;;;;;;;106.77;21.97;;;;;;;5.31;95.54;91422.31;5011770;28;20227;-89
2022/01/10 08:16:58;;;;;;;47.33;21.30;;;;;;;5.09;97.18;91419.41;5011550;28;20239;-91
2022/01/10 08:19:24;;;;;;;256.57;28.67;;;;;;;4.79;97.06;91405.72;5011001;28;20203;-92
2022/01/10 08:21:49;;;;;;;302.07;33.40;;;;;;;4.78;98.92;91424.09;5011020;28;20226;-90
2022/01/10 08:24:16;;;;;;;156.17;25.87;;;;;;;4.78;98.88;91424.88;5011008;28;20202;-93
2022/01/10 08:26:41;;;;;;;56.63;24.00;;;;;;;4.70;98.74;91428.03;5008938;28;20223;-91
2022/01/10 08:29:08;;;;;;;28.93;23.40;;;;;;;4.66;98.44;91431.44;5011340;28;20214;-90
2022/01/10 08:31:34;;;;;;;36.13;22.77;;;;;;;4.53;99.27;91416.53;5009386;28;20238;-89
2022/01/10 08:34:04;;;;;;;77.07;24.00;;;;;;;4.60;98.85;91427.34;5011502;28;20380;-78
2022/01/10 08:36:30;;;;;;;182.47;28.60;;;;;;;4.49;99.33;91421.50;5009040;28;20227;-80
2022/01/10 08:38:56;;;;;;;162.17;25.43;;;;;;;4.50;99.90;91430.78;5008821;28;20226;-80
2022/01/10 08:41:22;;;;;;;293.67;29.27;;;;;;;4.45;100.00;91420.47;5009930;28;20233;-81
2022/01/10 08:43:47;;;;;;;106.87;21.33;;;;;;;4.43;100.00;91438.09;5024412;28;20290;-80
2022/01/10 08:46:13;;;;;;;236.77;25.93;;;;;;;4.14;100.00;91410.66;5008721;28;20906;-78
2022/01/10 08:48:40;;;;;;;123.57;22.13;;;;;;;4.27;100.00;91434.06;5006922;28;20195;-79
2022/01/10 08:51:06;;;;;;;95.00;21.97;;;;;;;4.38;100.00;91434.75;5004660;28;20224;-80
2022/01/10 08:53:32;;;;;;;23.53;20.47;;;;;;;4.18;100.00;91409.84;5006521;28;20892;-80
2022/01/10 08:55:57;;;;;;;22.60;19.60;;;;;;;4.39;100.00;91437.06;5006683;28;20219;-80
2022/01/10 08:58:24;;;;;;;20.73;18.60;;;;;;;4.28;100.00;91401.25;5006919;28;20208;-81
2022/01/10 09:00:50;;;;;;;38.23;18.27;;;;;;;4.46;100.00;91431.59;5005991;28;20235;-79
2022/01/10 09:03:16;;;;;;;24.13;19.73;;;;;;;4.61;100.00;91445.16;5007611;28;20202;-80
2022/01/10 09:05:41;;;;;;;23.13;18.33;;;;;;;4.58;100.00;91450.09;5008745;28;20286;-81
2022/01/10 09:08:07;;;;;;;21.87;18.13;;;;;;;4.55;100.00;91445.47;5023656;28;20195;-80
2022/01/10 09:10:32;;;;;;;20.23;17.77;;;;;;;4.61;100.00;91450.34;5008592;28;20231;-79
2022/01/10 09:12:58;;;;;;;35.40;19.23;;;;;;;4.53;100.00;91447.56;5009439;28;20190;-83
2022/01/10 09:15:24;;;;;;;33.20;18.57;;;;;;;4.57;100.00;91454.53;5007597;28;20219;-79
2022/01/10 09:17:50;;;;;;;21.87;18.53;;;;;;;4.53;100.00;91425.06;5024159;28;20202;-79
2022/01/10 09:20:15;;;;;;;22.53;18.20;;;;;;;4.67;100.00;91438.13;5008076;28;20214;-79
2022/01/10 09:22:42;;;;;;;28.73;20.07;;;;;;;4.81;100.00;91460.50;5008729;28;20183;-79
2022/01/10 09:25:09;;;;;;;25.00;18.17;;;;;;;4.90;99.59;91451.13;5008500;28;20195;-79
2022/01/10 09:27:35;;;;;;;26.53;19.67;;;;;;;4.89;99.21;91441.84;5009014;28;20287;-79
2022/01/10 09:30:01;;;;;;;22.70;18.63;;;;;;;5.14;98.48;91458.19;5009134;28;20196;-79
2022/01/10 09:32:26;;;;;;;61.57;20.67;;;;;;;4.87;98.30;91438.75;5007707;28;20227;-79
2022/01/10 09:34:51;;;;;;;21.97;19.60;;;;;;;4.93;98.27;91442.81;5009189;28;20225;-80
2022/01/10 09:37:17;;;;;;;20.07;17.80;;;;;;;5.00;97.95;91432.16;5008356;28;20250;-80
2022/01/10 09:39:42;;;;;;;29.13;20.20;;;;;;;4.94;97.11;91421.09;5008834;28;20233;-79
2022/01/10 09:42:09;;;;;;;77.73;19.70;;;;;;;5.01;98.10;91444.06;5008476;28;20215;-78
2022/01/10 09:44:35;;;;;;;35.93;18.87;;;;;;;4.97;98.32;91449.00;5007864;28;20278;-78
2022/01/10 09:47:01;;;;;;;40.37;19.63;;;;;;;5.04;97.63;91438.34;5008416;28;20254;-78
2022/01/10 09:49:27;;;;;;;33.00;19.10;;;;;;;4.97;97.99;91436.06;5008105;28;20725;-77
2022/01/10 09:51:52;;;;;;;22.97;18.77;;;;;;;5.08;97.30;91467.00;5008630;28;20234;-77
2022/01/10 09:54:18;;;;;;;20.57;18.37;;;;;;;5.22;97.20;91454.97;5009626;28;20214;-79
2022/01/10 09:56:47;;;;;;;22.80;18.67;;;;;;;5.10;96.96;91444.22;5008243;28;20223;-78
2022/01/10 09:59:13;;;;;;;22.17;18.53;;;;;;;4.92;98.16;91430.94;5006517;28;20199;-80
2022/01/10 10:01:39;;;;;;;21.87;18.13;;;;;;;5.09;97.72;91445.28;5008431;28;20227;-83
2022/01/10 10:04:04;;;;;;;26.83;20.33;;;;;;;5.26;96.98;91446.38;5007186;28;20192;-76
2022/01/10 10:06:32;;;;;;;27.97;21.83;;;;;;;5.21;96.81;91458.59;5006592;28;20226;-79
2022/01/10 10:09:06;;;;;;;24.10;19.17;;;;;;;5.17;98.01;91455.03;5023690;28;20219;-79
2022/01/10 10:11:40;;;;;;;27.03;20.60;;;;;;;5.16;97.27;91453.47;5006026;28;20269;-79
2022/01/10 10:14:08;;;;;;;22.60;18.97;;;;;;;5.08;97.71;91435.97;5006551;28;20207;-78
2022/01/10 10:16:36;;;;;;;20.53;18.40;;;;;;;5.06;97.59;91438.06;5021915;28;20268;-79
2022/01/10 10:19:04;;;;;;;21.70;19.37;;;;;;;5.06;97.80;91446.59;5007143;28;20176;-78
2022/01/10 10:21:31;;;;;;;22.40;18.67;;;;;;;5.13;97.79;91452.22;5007949;28;20223;-79
2022/01/10 10:23:57;;;;;;;22.43;19.77;;;;;;;5.06;98.22;91443.25;5004486;28;20700;-78
2022/01/10 10:26:25;;;;;;;25.47;20.07;;;;;;;5.24;97.50;91452.88;5005668;28;20314;-86
2022/01/10 10:28:54;;;;;;;21.07;18.80;;;;;;;5.07;97.65;91447.34;5006939;28;20191;-87
2022/01/10 10:31:28;;;;;;;23.97;20.50;;;;;;;4.90;98.49;91458.13;5007350;28;20254;-84
2022/01/10 10:33:54;;;;;;;26.03;21.33;;;;;;;4.75;99.67;91443.50;5006210;28;20200;-85
2022/01/10 10:36:21;;;;;;;26.20;20.70;;;;;;;4.88;99.76;91442.09;5006710;28;20227;-80
2022/01/10 10:38:47;;;;;;;38.80;20.17;;;;;;;5.04;99.38;91442.75;5006022;28;20314;-79
2022/01/10 10:41:12;;;;;;;45.17;20.80;;;;;;;4.89;98.98;91435.88;5022263;28;20880;-76
2022/01/10 10:43:40;;;;;;;68.47;20.50;;;;;;;5.07;98.33;91444.78;5006140;28;20199;-79
2022/01/10 10:46:13;;;;;;;34.17;21.33;;;;;;;4.87;97.73;91423.22;5022187;28;20224;-79
2022/01/10 10:48:40;;;;;;;195.70;26.73;;;;;;;4.82;98.95;91433.59;5006298;28;20306;-87
2022/01/10 10:51:06;;;;;;;332.43;30.30;;;;;;;4.77;99.37;91441.44;5007329;28;20223;-83
2022/01/10 10:53:32;;;;;;;179.00;27.53;;;;;;;4.63;100.00;91445.69;5008373;28;20207;-80
2022/01/10 10:55:59;;;;;;;77.53;26.10;;;;;;;4.78;100.00;91460.28;5006218;28;20234;-83
2022/01/10 10:58:26;;;;;;;71.33;26.17;;;;;;;4.89;100.00;91452.19;5010135;28;20205;-74
2022/01/10 11:00:56;;;;;;;60.70;25.53;;;;;;;4.62;100.00;91426.03;5006337;28;20234;-76
2022/01/10 11:03:23;;;;;;;80.60;26.20;;;;;;;4.74;100.00;91457.47;5006991;28;20231;-76
2022/01/10 11:05:50;;;;;;;102.90;30.50;;;;;;;4.83;100.00;91448.09;5006678;28;20231;-73
2022/01/10 11:08:16;;;;;;;56.57;24.53;;;;;;;4.81;100.00;91459.72;5006726;28;20195;-76
2022/01/10 11:10:42;;;;;;;146.40;26.77;;;;;;;4.74;100.00;91412.75;5006817;28;20243;-81
2022/01/10 11:13:10;;;;;;;165.77;25.57;;;;;;;5.04;98.84;91459.03;5004917;28;20199;-82
2022/01/10 11:15:39;;;;;;;50.10;24.17;;;;;;;4.89;99.49;91467.69;5007048;28;20243;-84
2022/01/10 11:18:08;;;;;;;185.83;28.53;;;;;;;4.74;100.00;91447.16;5005488;28;20184;-81
2022/01/10 11:20:47;;;;;;;237.50;31.90;;;;;;;4.61;99.64;91447.75;5005491;28;20223;-81
2022/01/10 11:23:13;;;;;;;281.53;30.17;;;;;;;4.63;100.00;91465.56;5023431;28;20187;-77
2022/01/10 11:25:40;;;;;;;288.90;38.17;;;;;;;4.48;100.00;91471.63;5010150;28;20229;-76
2022/01/10 11:28:23;;;;;;;493.30;42.20;;;;;;;4.57;100.00;91470.03;5009541;28;20738;-74
2022/01/10 11:31:08;;;;;;;518.20;41.37;;;;;;;4.90;99.20;91463.28;5010349;28;20223;-74